Time;durP1;ratioP1;P1;durP2;ratioP2;P2;SDS_P1;SDS_P2;PMS_P1;PMS_P2;Temp;Humidity;BMP_temperature;BMP_pressure;BME280_temperature;BME280_humidity;BME280_pressure;Samples;Min_cycle;Max_cycle;Signal;HPM_P1;HPM_P2
2022/05/14 00:01:40;;;;;;;;;16.00;12.40;;;;;23.50;49.72;99378.66;4990155;28;9703;-77
2022/05/14 00:04:09;;;;;;;;;13.00;12.60;;;;;23.51;49.75;99380.34;4950156;28;8852;-77
2022/05/14 00:06:38;;;;;;;;;12.00;11.60;;;;;23.53;49.78;99380.25;4973908;28;8848;-79
2022/05/14 00:09:07;;;;;;;;;13.80;13.80;;;;;23.54;49.84;99385.50;4990787;28;9590;-77
2022/05/14 00:14:24;;;;;;;;;13.80;13.40;;;;;23.50;49.96;99381.31;5006118;28;8918;-77
2022/05/14 00:16:52;;;;;;;;;13.80;12.40;;;;;23.48;50.03;99377.88;4974347;28;8860;-79
2022/05/14 00:19:22;;;;;;;;;11.60;10.80;;;;;23.42;50.07;99388.88;5006544;28;8967;-77
2022/05/14 00:21:51;;;;;;;;;13.20;12.40;;;;;23.32;50.54;99388.50;4993908;28;8833;-78
2022/05/14 00:24:22;;;;;;;;;12.40;11.00;;;;;23.28;50.46;99380.78;5009753;28;8852;-80
2022/05/14 00:26:51;;;;;;;;;13.60;11.80;;;;;23.25;50.39;99381.84;5009680;28;8853;-77
2022/05/14 00:29:20;;;;;;;;;12.60;12.20;;;;;23.09;51.07;99383.59;4977270;28;8818;-79
2022/05/14 00:31:50;;;;;;;;;12.40;12.40;;;;;23.05;51.10;99385.56;5006170;28;9735;-78
2022/05/14 00:34:19;;;;;;;;;11.40;10.40;;;;;23.12;51.08;99389.63;5033390;28;9009;-77
2022/05/14 00:36:48;;;;;;;;;15.20;13.20;;;;;23.10;51.11;99388.84;5067913;28;8860;-78
2022/05/14 00:39:17;;;;;;;;;12.80;10.80;;;;;23.06;50.83;99381.09;5051226;28;8850;-78
2022/05/14 00:41:49;;;;;;;;;12.20;10.60;;;;;23.07;50.92;99380.19;5067681;28;8870;-77
2022/05/14 00:44:19;;;;;;;;;10.60;10.60;;;;;22.92;51.56;99389.81;5034457;28;8854;-78
2022/05/14 00:46:54;;;;;;;;;10.00;10.00;;;;;22.93;51.44;99388.84;5033573;28;8878;-79
2022/05/14 00:49:25;;;;;;;;;10.20;10.00;;;;;22.96;51.00;99391.34;5051277;28;8850;-77
2022/05/14 00:51:54;;;;;;;;;16.20;11.80;;;;;22.94;50.93;99386.13;5051156;28;8897;-78
2022/05/14 00:54:28;;;;;;;;;11.80;10.60;;;;;22.90;51.21;99389.88;5068691;28;8878;-79
2022/05/14 00:57:04;;;;;;;;;11.40;10.00;;;;;22.89;51.19;99392.63;5035739;28;8838;-77
2022/05/14 00:59:33;;;;;;;;;10.60;10.60;;;;;22.91;50.85;99399.59;5068267;28;8877;-75
2022/05/14 01:02:06;;;;;;;;;9.80;9.80;;;;;22.97;50.67;99393.94;5062764;28;8874;-77
2022/05/14 01:04:35;;;;;;;;;13.60;11.20;;;;;23.04;50.55;99386.50;5051118;28;8850;-77
2022/05/14 01:07:09;;;;;;;;;12.40;11.40;;;;;23.01;50.66;99388.47;5021259;28;8878;-76
2022/05/14 01:09:44;;;;;;;;;10.80;10.80;;;;;23.03;50.68;99387.47;5054254;28;8871;-77
2022/05/14 01:12:15;;;;;;;;;11.20;10.20;;;;;23.05;50.55;99390.91;5054050;28;8859;-79
2022/05/14 01:14:44;;;;;;;;;13.20;11.60;;;;;23.06;50.32;99389.09;5070577;28;8856;-78
2022/05/14 01:17:14;;;;;;;;;12.20;10.20;;;;;23.05;50.13;99390.03;5048074;28;8847;-78
2022/05/14 01:19:43;;;;;;;;;9.00;9.00;;;;;23.00;50.17;99384.94;5067318;28;8858;-78
2022/05/14 01:22:24;;;;;;;;;9.40;9.40;;;;;22.97;49.84;99385.13;5054012;28;8990;-78
2022/05/14 01:28:22;;;;;;;;;12.00;11.00;;;;;22.93;49.96;99396.84;4950672;28;8886;-78
2022/05/14 01:30:56;;;;;;;;;9.80;8.80;;;;;22.93;49.92;99399.50;5014860;28;8866;-76
2022/05/14 01:33:26;;;;;;;;;13.20;12.40;;;;;22.92;50.00;99401.31;4980771;28;8874;-77
2022/05/14 01:35:55;;;;;;;;;10.60;10.40;;;;;22.70;50.09;99400.72;5012828;28;8866;-76
2022/05/14 01:38:25;;;;;;;;;10.80;10.80;;;;;22.58;50.36;99405.75;4972316;28;8888;-77
2022/05/14 01:40:53;;;;;;;;;9.20;8.60;;;;;22.59;50.20;99406.63;4989640;28;8945;-77
2022/05/14 01:43:24;;;;;;;;;12.00;9.80;;;;;22.55;50.56;99397.06;4989309;28;9767;-78
2022/05/14 01:45:52;;;;;;;;;11.40;11.20;;;;;22.56;50.50;99394.34;4961320;28;9060;-77
2022/05/14 01:48:21;;;;;;;;;11.20;9.60;;;;;22.50;50.57;99393.81;4957115;28;8879;-76
2022/05/14 01:50:50;;;;;;;;;10.00;9.00;;;;;22.45;50.66;99388.72;4957109;28;8914;-77
2022/05/14 01:53:19;;;;;;;;;9.80;9.80;;;;;22.49;50.51;99394.75;4933517;28;8969;-76
2022/05/14 01:55:49;;;;;;;;;7.40;6.20;;;;;22.52;50.41;99389.28;4899278;29;8978;-76
2022/05/14 02:01:12;;;;;;;;;14.20;13.60;;;;;22.56;50.20;99382.84;4943409;28;8836;-79
2022/05/14 02:03:44;;;;;;;;;9.60;9.60;;;;;22.57;50.12;99388.09;4982942;28;8862;-76
2022/05/14 02:06:13;;;;;;;;;11.80;11.60;;;;;22.55;50.43;99383.78;4972765;28;9639;-78
2022/05/14 02:08:43;;;;;;;;;8.80;8.80;;;;;22.56;50.17;99394.34;4956645;28;8874;-76
2022/05/14 02:11:13;;;;;;;;;10.20;10.20;;;;;22.49;50.26;99390.28;4939807;28;8888;-77
2022/05/14 02:13:46;;;;;;;;;11.20;9.80;;;;;22.48;50.06;99390.38;4988913;28;8838;-77
2022/05/14 02:16:17;;;;;;;;;8.80;8.80;;;;;22.46;50.14;99395.78;5014489;28;8890;-78
2022/05/14 02:18:46;;;;;;;;;10.80;8.80;;;;;22.41;50.38;99396.94;5048017;28;9594;-77
2022/05/14 02:21:18;;;;;;;;;11.00;11.00;;;;;22.33;50.25;99403.50;5031304;28;8929;-78
2022/05/14 02:23:48;;;;;;;;;11.80;9.80;;;;;22.30;50.42;99398.34;5032180;28;8854;-77
2022/05/14 02:26:16;;;;;;;;;11.40;10.40;;;;;22.31;50.55;99401.88;5049317;28;8888;-76
2022/05/14 02:28:45;;;;;;;;;11.60;10.60;;;;;22.25;50.63;99400.41;5062648;28;8851;-77
2022/05/14 02:31:14;;;;;;;;;10.20;10.20;;;;;22.14;50.76;99403.56;5049044;28;8847;-77
2022/05/14 02:33:44;;;;;;;;;9.60;9.60;;;;;22.06;51.06;99410.19;5064664;28;9618;-77
2022/05/14 02:36:13;;;;;;;;;9.00;9.00;;;;;22.03;50.94;99411.19;5087548;28;8850;-77
2022/05/14 02:38:42;;;;;;;;;10.40;10.40;;;;;21.99;51.15;99407.00;5070954;28;8849;-76
2022/05/14 02:41:12;;;;;;;;;11.00;10.40;;;;;22.00;50.95;99414.88;5054233;28;8845;-77
2022/05/14 02:43:41;;;;;;;;;10.20;10.00;;;;;22.00;51.05;99409.56;5066348;28;8992;-79
2022/05/14 02:46:12;;;;;;;;;7.00;6.40;;;;;21.98;51.00;99419.41;5027129;28;8920;-77
2022/05/14 02:48:42;;;;;;;;;10.40;10.00;;;;;22.01;51.03;99418.38;4997783;28;8954;-77
2022/05/14 02:51:13;;;;;;;;;11.60;11.60;;;;;21.89;51.47;99419.88;5000269;28;8878;-77
2022/05/14 02:53:41;;;;;;;;;13.40;12.80;;;;;21.39;53.13;99425.78;5030747;28;8891;-77
2022/05/14 02:56:10;;;;;;;;;11.00;11.00;;;;;21.14;53.96;99426.06;5046786;28;8896;-77
2022/05/14 03:01:24;;;;;;;;;13.80;13.00;;;;;20.62;56.25;99440.72;4990950;28;8961;-77
2022/05/14 03:03:53;;;;;;;;;12.80;11.60;;;;;20.33;57.24;99439.28;4990961;28;8844;-76
2022/05/14 03:06:24;;;;;;;;;12.80;12.40;;;;;20.13;58.36;99441.88;5006497;28;8856;-78
2022/05/14 03:08:52;;;;;;;;;13.80;13.00;;;;;19.90;59.51;99448.97;4987539;28;8885;-77
2022/05/14 03:11:22;;;;;;;;;10.60;10.60;;;;;19.65;60.24;99451.72;4971746;28;8869;-77
2022/05/14 03:13:50;;;;;;;;;13.00;13.00;;;;;19.41;61.11;99456.19;4957710;28;8887;-79
2022/05/14 03:16:21;;;;;;;;;15.40;13.80;;;;;19.25;62.15;99461.19;4937818;28;8855;-79
2022/05/14 03:18:50;;;;;;;;;11.00;11.00;;;;;19.29;62.33;99458.38;5016971;28;9688;-79
2022/05/14 03:21:19;;;;;;;;;16.40;15.20;;;;;19.25;62.87;99458.56;5017526;28;8964;-78
2022/05/14 03:23:49;;;;;;;;;13.40;13.20;;;;;19.38;62.04;99472.19;4993753;28;8853;-77
2022/05/14 03:26:18;;;;;;;;;12.00;12.00;;;;;19.42;61.86;99476.44;5010110;28;9624;-78
2022/05/14 03:28:47;;;;;;;;;13.40;13.40;;;;;19.54;61.84;99481.22;4988096;28;8884;-78
2022/05/14 03:31:16;;;;;;;;;12.60;11.60;;;;;19.64;61.11;99485.25;4968530;28;8859;-79
2022/05/14 03:33:45;;;;;;;;;25.50;24.25;;;;;19.94;60.04;99485.00;4987692;28;8832;-76
2022/05/14 03:36:14;;;;;;;;;18.00;15.00;;;;;20.02;59.80;99484.72;5006864;28;8859;-76
2022/05/14 03:38:43;;;;;;;;;15.40;15.40;;;;;19.90;60.47;99493.13;5003824;28;9633;-78
2022/05/14 03:41:13;;;;;;;;;12.60;12.60;;;;;20.11;59.97;99486.09;5029951;28;8847;-79
2022/05/14 03:43:43;;;;;;;;;13.20;13.00;;;;;19.83;61.36;99489.88;5029827;28;8859;-77
2022/05/14 03:46:12;;;;;;;;;13.40;11.80;;;;;20.14;60.42;99489.50;5030844;28;8964;-76
2022/05/14 03:48:42;;;;;;;;;12.80;12.40;;;;;20.25;60.02;99494.34;5012552;28;8845;-78
2022/05/14 03:51:10;;;;;;;;;15.80;15.40;;;;;20.18;60.25;99499.03;4977233;28;8840;-77
2022/05/14 03:53:40;;;;;;;;;19.40;18.00;;;;;20.38;59.61;99494.72;5034147;28;8970;-74
2022/05/14 03:56:09;;;;;;;;;15.80;15.20;;;;;20.39;59.25;99507.00;5011802;28;8848;-78
2022/05/14 03:58:39;;;;;;;;;17.00;17.00;;;;;20.54;58.75;99500.22;5044905;28;8856;-77
2022/05/14 04:01:09;;;;;;;;;14.80;14.80;;;;;20.54;58.77;99493.13;5045897;28;8872;-78
2022/05/14 04:03:38;;;;;;;;;28.00;24.75;;;;;20.56;58.52;99504.50;5062315;28;8876;-77
2022/05/14 04:06:08;;;;;;;;;23.00;21.20;;;;;20.67;57.81;99503.25;5061688;28;8876;-80
2022/05/14 04:08:36;;;;;;;;;15.60;14.80;;;;;20.86;57.08;99495.34;5062128;28;8856;-77
2022/05/14 04:11:05;;;;;;;;;16.80;15.80;;;;;20.95;56.30;99500.25;5062932;28;8866;-77
2022/05/14 04:13:35;;;;;;;;;13.80;13.40;;;;;21.10;55.83;99504.03;5015060;28;8927;-77
2022/05/14 04:16:05;;;;;;;;;15.00;14.20;;;;;21.12;55.03;99495.06;5047455;28;8953;-78
2022/05/14 04:18:35;;;;;;;;;16.60;15.00;;;;;21.14;54.26;99495.00;5060619;28;8842;-77
2022/05/14 04:21:05;;;;;;;;;12.80;11.80;;;;;21.19;53.95;99496.53;5042317;28;8827;-77
2022/05/14 04:23:34;;;;;;;;;19.00;15.80;;;;;21.22;53.57;99506.97;5025688;28;8937;-78
2022/05/14 04:26:03;;;;;;;;;16.40;16.40;;;;;21.11;53.46;99509.25;5011764;28;8859;-77
2022/05/14 04:28:33;;;;;;;;;13.00;12.60;;;;;20.83;54.21;99510.47;5044137;28;8873;-78
2022/05/14 04:31:02;;;;;;;;;13.40;13.40;;;;;20.62;54.95;99516.66;5027983;28;9007;-77
2022/05/14 04:33:34;;;;;;;;;13.60;12.00;;;;;20.61;54.74;99517.63;5011384;28;8872;-78
2022/05/14 04:36:03;;;;;;;;;14.40;11.40;;;;;20.45;55.14;99517.34;5026521;28;8887;-79
2022/05/14 04:38:33;;;;;;;;;13.40;13.40;;;;;20.54;54.94;99516.97;4967561;28;8858;-76
2022/05/14 04:41:02;;;;;;;;;11.20;11.20;;;;;20.72;54.22;99520.69;4972790;28;8895;-77
2022/05/14 04:43:31;;;;;;;;;14.00;14.00;;;;;20.46;54.96;99519.09;4969288;28;8955;-78
2022/05/14 04:46:01;;;;;;;;;12.00;11.60;;;;;20.65;54.51;99516.56;4969125;28;8866;-80
2022/05/14 04:48:30;;;;;;;;;11.40;11.40;;;;;20.78;53.50;99514.25;4968767;28;8981;-77
2022/05/14 04:51:00;;;;;;;;;10.80;10.80;;;;;21.09;52.53;99507.59;4952994;28;9016;-77
2022/05/14 04:53:29;;;;;;;;;11.00;10.00;;;;;21.18;51.83;99517.78;4974669;28;8837;-79
2022/05/14 04:55:58;;;;;;;;;10.00;10.00;;;;;21.36;51.71;99514.31;4956383;28;8870;-77
2022/05/14 04:58:27;;;;;;;;;8.60;8.40;;;;;21.20;51.97;99521.25;5007561;28;9604;-77
2022/05/14 05:00:57;;;;;;;;;12.20;11.40;;;;;20.96;52.93;99518.75;5002845;28;8852;-78
2022/05/14 05:03:27;;;;;;;;;13.60;12.60;;;;;20.78;53.96;99523.06;4977763;28;9659;-76
2022/05/14 05:06:02;;;;;;;;;12.60;11.40;;;;;20.86;54.06;99516.56;4975873;28;8873;-76
2022/05/14 05:08:33;;;;;;;;;11.00;10.00;;;;;20.56;55.20;99524.84;5007481;28;8862;-77
2022/05/14 05:11:02;;;;;;;;;11.00;10.00;;;;;20.43;56.08;99537.75;5062803;28;8902;-75
2022/05/14 05:13:32;;;;;;;;;10.80;10.80;;;;;20.38;56.30;99542.38;5014466;28;8888;-76
2022/05/14 05:16:01;;;;;;;;;12.00;12.00;;;;;20.19;57.34;99527.25;5046515;28;8870;-78
2022/05/14 05:18:30;;;;;;;;;13.60;13.60;;;;;20.17;57.54;99539.69;5062146;28;8920;-77
2022/05/14 05:20:58;;;;;;;;;12.20;12.20;;;;;20.32;57.24;99529.38;5047160;28;8967;-77
2022/05/14 05:23:28;;;;;;;;;12.40;11.60;;;;;20.23;57.61;99538.56;5065440;28;8860;-75
2022/05/14 05:25:58;;;;;;;;;12.60;12.00;;;;;20.44;57.27;99537.69;5064953;28;8969;-77
2022/05/14 05:28:28;;;;;;;;;15.60;14.60;;;;;20.33;57.51;99539.06;5064367;28;8998;-77
2022/05/14 05:30:57;;;;;;;;;15.40;14.60;;;;;20.29;57.83;99545.41;5066296;28;8856;-76
2022/05/14 05:33:26;;;;;;;;;13.40;12.00;;;;;20.22;58.42;99547.44;5054360;28;8950;-77
2022/05/14 05:35:55;;;;;;;;;12.80;11.80;;;;;20.24;58.55;99543.81;5070892;28;8859;-77
2022/05/14 05:38:23;;;;;;;;;13.40;13.40;;;;;20.17;58.96;99547.63;5067055;28;8855;-76
2022/05/14 05:40:54;;;;;;;;;13.40;13.40;;;;;20.23;58.92;99555.31;5033660;28;8859;-76
2022/05/14 05:43:22;;;;;;;;;14.40;13.60;;;;;20.15;59.36;99552.13;5057967;28;8874;-78
2022/05/14 05:45:51;;;;;;;;;12.40;12.40;;;;;20.14;59.49;99562.78;5067428;28;8876;-76
2022/05/14 05:48:20;;;;;;;;;13.00;12.20;;;;;20.20;58.83;99555.44;5069600;28;8844;-76
2022/05/14 05:50:49;;;;;;;;;14.80;14.40;;;;;20.16;59.35;99548.53;5052983;28;8842;-76
2022/05/14 05:53:18;;;;;;;;;13.00;13.00;;;;;20.19;59.04;99561.66;5050477;28;8870;-75
2022/05/14 05:58:35;;;;;;;;;14.40;13.80;;;;;20.42;58.44;99557.22;5041564;28;8882;-76
2022/05/14 06:01:03;;;;;;;;;13.40;13.00;;;;;20.62;57.92;99548.47;5069675;28;9653;-78
2022/05/14 06:03:32;;;;;;;;;13.00;11.60;;;;;20.61;57.98;99558.22;5050235;28;8866;-76
2022/05/14 06:06:01;;;;;;;;;16.20;14.20;;;;;20.65;57.37;99561.59;5051314;28;8846;-77
2022/05/14 06:08:30;;;;;;;;;11.60;11.00;;;;;20.58;57.79;99560.09;5050508;28;8854;-79
2022/05/14 06:10:58;;;;;;;;;12.60;11.60;;;;;20.74;56.88;99558.56;5049697;28;8858;-75
2022/05/14 06:13:27;;;;;;;;;12.40;11.80;;;;;20.70;56.71;99562.28;5049186;28;8897;-74
2022/05/14 06:15:57;;;;;;;;;15.80;14.80;;;;;20.80;57.10;99560.94;5050334;28;8858;-73
2022/05/14 06:18:26;;;;;;;;;12.60;12.20;;;;;20.58;56.51;99562.75;5050281;28;8894;-73
2022/05/14 06:20:54;;;;;;;;;13.20;12.40;;;;;20.66;57.02;99560.66;5050361;28;9588;-75
2022/05/14 06:23:23;;;;;;;;;13.20;13.00;;;;;20.66;57.08;99567.75;5050030;28;8862;-65
2022/05/14 06:25:51;;;;;;;;;13.60;12.80;;;;;20.66;57.41;99568.59;5014796;28;8951;-66
2022/05/14 06:28:20;;;;;;;;;14.40;13.40;;;;;20.77;56.59;99581.41;5049668;28;8981;-68
2022/05/14 06:30:49;;;;;;;;;15.40;14.40;;;;;21.06;55.96;99571.34;5049757;28;8811;-66
2022/05/14 06:33:21;;;;;;;;;14.80;14.40;;;;;21.35;55.50;99568.28;5048296;28;8862;-66
2022/05/14 06:35:49;;;;;;;;;17.80;17.20;;;;;21.46;55.74;99574.97;5049285;28;8846;-67
2022/05/14 06:38:19;;;;;;;;;13.00;13.00;;;;;21.54;54.90;99570.16;5049068;28;8862;-68
2022/05/14 06:40:48;;;;;;;;;15.00;13.40;;;;;21.52;55.38;99569.38;5049397;28;10127;-66
2022/05/14 06:43:16;;;;;;;;;15.00;13.80;;;;;21.75;54.00;99581.59;5049574;28;8865;-66
2022/05/14 06:45:45;;;;;;;;;16.00;15.20;;;;;21.77;53.79;99588.53;5049597;28;8894;-64
2022/05/14 06:48:14;;;;;;;;;14.20;14.20;;;;;21.87;53.53;99581.03;5049741;28;8966;-68
2022/05/14 06:50:48;;;;;;;;;12.20;12.00;;;;;21.71;54.83;99570.25;5049092;28;8842;-67
2022/05/14 06:53:20;;;;;;;;;12.80;12.80;;;;;21.72;54.39;99577.28;5059804;28;8867;-66
2022/05/14 06:55:54;;;;;;;;;11.60;11.00;;;;;21.70;54.81;99573.84;5047762;28;8842;-66
2022/05/14 06:58:26;;;;;;;;;16.80;15.80;;;;;21.66;55.12;99584.66;5048633;28;8843;-65
2022/05/14 07:00:55;;;;;;;;;21.20;17.40;;;;;21.47;55.05;99577.53;5014470;28;8839;-65
2022/05/14 07:08:57;;;;;;;;;20.75;20.50;;;;;21.64;55.04;99578.56;5055270;28;8867;-68
2022/05/14 07:11:26;;;;;;;;;15.80;15.20;;;;;21.86;54.95;99578.44;5068231;28;8836;-66
2022/05/14 07:13:55;;;;;;;;;21.40;21.00;;;;;21.97;54.13;99586.78;5065870;28;8852;-68
2022/05/14 07:16:24;;;;;;;;;21.80;19.60;;;;;22.17;54.01;99586.69;5046861;28;8859;-66
2022/05/14 07:18:53;;;;;;;;;16.40;15.20;;;;;22.24;54.04;99579.28;5047313;28;8858;-74
2022/05/14 07:21:23;;;;;;;;;15.60;15.20;;;;;22.28;54.29;99578.22;5048346;28;10045;-73
2022/05/14 07:23:52;;;;;;;;;18.00;16.00;;;;;22.38;53.23;99578.63;5047126;28;8939;-74
2022/05/14 07:26:20;;;;;;;;;16.60;14.60;;;;;22.31;53.30;99587.84;5046861;28;8889;-71
2022/05/14 07:28:49;;;;;;;;;11.20;11.20;;;;;22.16;54.28;99579.66;5047533;28;9592;-66
2022/05/14 07:31:17;;;;;;;;;15.00;15.00;;;;;22.33;53.78;99581.53;5047756;28;8918;-68
2022/05/14 07:33:46;;;;;;;;;14.80;14.40;;;;;22.63;53.59;99575.66;5047931;28;8854;-67
2022/05/14 07:36:19;;;;;;;;;17.40;15.80;;;;;22.26;53.38;99592.53;5048064;28;8846;-68
2022/05/14 07:38:50;;;;;;;;;17.60;16.40;;;;;22.37;53.54;99571.59;5047056;28;9045;-67
2022/05/14 07:41:19;;;;;;;;;10.00;9.80;;;;;22.79;52.31;99583.69;5047488;28;8859;-66
2022/05/14 07:43:51;;;;;;;;;15.80;15.20;;;;;22.49;52.73;99594.91;5047172;28;8896;-67
2022/05/14 07:46:26;;;;;;;;;12.40;12.40;;;;;22.01;54.04;99596.31;5029015;28;8886;-69
2022/05/14 07:48:56;;;;;;;;;17.60;16.80;;;;;22.18;54.23;99596.38;5028838;28;8880;-68
2022/05/14 07:51:26;;;;;;;;;15.60;15.20;;;;;22.21;53.38;99590.03;5047361;28;8830;-68
2022/05/14 07:53:56;;;;;;;;;15.20;14.00;;;;;22.16;53.75;99605.34;5052466;28;8824;-66
2022/05/14 07:56:25;;;;;;;;;13.80;13.80;;;;;21.78;54.26;99592.94;5064592;28;8888;-69
2022/05/14 07:58:53;;;;;;;;;13.80;13.00;;;;;21.75;54.53;99598.38;5026477;28;8854;-66
2022/05/14 08:01:22;;;;;;;;;14.20;13.80;;;;;21.92;53.80;99596.72;5056175;28;8906;-67
2022/05/14 08:03:51;;;;;;;;;21.00;19.60;;;;;22.31;52.52;99594.03;5065119;28;8863;-67
2022/05/14 08:06:22;;;;;;;;;14.60;14.40;;;;;22.31;52.26;99590.50;5064923;28;8968;-68
2022/05/14 08:08:53;;;;;;;;;16.60;16.20;;;;;21.86;53.97;99595.22;5055550;28;8866;-76
2022/05/14 08:11:24;;;;;;;;;17.40;16.40;;;;;21.90;53.45;99595.94;5047619;28;8852;-75
2022/05/14 08:13:54;;;;;;;;;21.20;17.40;;;;;22.15;53.21;99601.81;5044256;28;8939;-74
2022/05/14 08:16:22;;;;;;;;;16.25;16.25;;;;;21.98;54.20;99597.31;5064283;28;8852;-75
2022/05/14 08:18:52;;;;;;;;;15.00;14.00;;;;;22.23;54.18;99589.97;5061752;28;10042;-71
2022/05/14 08:26:54;;;;;;;;;14.00;12.80;;;;;22.45;53.10;99592.50;5028526;28;8974;-75
2022/05/14 08:29:24;;;;;;;;;16.80;16.40;;;;;22.41;53.67;99591.78;5027254;28;8960;-77
2022/05/14 08:31:52;;;;;;;;;13.40;13.00;;;;;22.34;53.07;99596.53;5018488;28;8857;-75
2022/05/14 08:34:21;;;;;;;;;14.80;13.20;;;;;22.08;54.12;99595.09;5031738;28;8952;-74
2022/05/14 08:36:49;;;;;;;;;15.00;14.80;;;;;22.16;54.22;99589.41;5040358;28;8922;-74
2022/05/14 08:39:18;;;;;;;;;15.00;13.40;;;;;22.50;53.34;99588.69;5042834;28;8909;-75
2022/05/14 08:41:49;;;;;;;;;16.00;15.00;;;;;22.89;52.54;99587.63;5027513;28;9590;-76
2022/05/14 08:44:22;;;;;;;;;15.40;14.20;;;;;23.15;51.22;99588.09;5042055;28;9041;-78
2022/05/14 08:46:55;;;;;;;;;14.60;14.60;;;;;23.46;50.02;99583.81;5034398;28;8861;-72
2022/05/14 08:49:30;;;;;;;;;16.40;15.60;;;;;23.75;48.42;99585.78;5042282;28;8878;-75
2022/05/14 08:51:59;;;;;;;;;16.00;15.40;;;;;23.66;49.20;99596.09;5027992;28;8863;-72
2022/05/14 08:54:28;;;;;;;;;16.80;16.00;;;;;24.04;49.06;99585.16;5031376;28;8875;-77
2022/05/14 08:57:06;;;;;;;;;13.20;12.40;;;;;24.15;48.41;99582.75;5030117;28;8960;-76
2022/05/14 08:59:49;;;;;;;;;14.00;14.00;;;;;23.11;50.33;99595.38;5013094;28;8973;-76
2022/05/14 09:02:20;;;;;;;;;14.60;14.00;;;;;23.24;51.21;99587.63;5000976;28;8986;-77
2022/05/14 09:04:50;;;;;;;;;16.40;15.00;;;;;23.22;49.76;99599.31;5030122;28;8825;-75
2022/05/14 09:07:20;;;;;;;;;14.80;14.60;;;;;23.18;50.03;99589.78;5030009;28;8968;-75
2022/05/14 09:09:50;;;;;;;;;15.40;13.80;;;;;23.58;48.97;99595.66;5031516;28;8902;-72
2022/05/14 09:12:22;;;;;;;;;14.60;14.60;;;;;23.67;48.63;99585.38;5037058;28;8875;-71
2022/05/14 09:14:57;;;;;;;;;13.40;13.40;;;;;23.42;49.75;99592.94;5029569;28;8874;-72
2022/05/14 09:17:30;;;;;;;;;15.60;13.20;;;;;23.79;49.40;99594.50;5047744;28;8881;-70
2022/05/14 09:20:00;;;;;;;;;20.00;18.00;;;;;23.36;50.40;99607.41;5047218;28;8855;-71
2022/05/14 09:22:33;;;;;;;;;13.80;13.80;;;;;23.57;50.44;99591.25;5069535;28;9022;-71
2022/05/14 09:25:16;;;;;;;;;15.60;15.20;;;;;24.04;49.49;99594.00;5049947;28;8885;-74
2022/05/14 09:27:49;;;;;;;;;13.40;13.40;;;;;23.58;49.10;99604.50;5050104;28;8842;-69
2022/05/14 09:30:29;;;;;;;;;17.20;17.20;;;;;23.63;49.16;99607.78;5019866;28;9001;-70
2022/05/14 09:32:58;;;;;;;;;16.20;16.20;;;;;23.51;48.83;99595.94;5049815;28;8875;-69
2022/05/14 09:35:29;;;;;;;;;17.40;16.80;;;;;24.00;48.34;99586.28;5049700;28;9087;-70
2022/05/14 09:38:10;;;;;;;;;16.80;15.60;;;;;23.88;47.53;99595.81;5050417;28;8975;-68
2022/05/14 09:40:40;;;;;;;;;16.20;15.40;;;;;24.03;47.61;99586.97;5065083;28;8863;-77
2022/05/14 09:43:13;;;;;;;;;15.60;15.60;;;;;24.38;46.86;99600.13;5049952;28;8863;-80
2022/05/14 09:45:45;;;;;;;;;11.80;11.40;;;;;24.05;45.97;99594.91;5003755;28;8886;-73
2022/05/14 09:48:19;;;;;;;;;17.20;17.00;;;;;24.07;45.72;99588.53;5066186;28;8847;-71
2022/05/14 09:50:57;;;;;;;;;18.80;16.40;;;;;23.89;45.27;99605.53;5053825;28;9005;-76
2022/05/14 09:53:29;;;;;;;;;15.40;15.40;;;;;23.97;45.85;99592.66;5053079;28;8861;-78
2022/05/14 09:56:31;;;;;;;;;18.60;18.60;;;;;24.09;46.41;99583.97;5049971;28;8885;-77
2022/05/14 09:59:15;;;;;;;;;13.60;13.60;;;;;24.51;46.13;99577.16;5045578;28;8835;-77
2022/05/14 10:01:52;;;;;;;;;13.40;13.40;;;;;24.43;47.02;99587.41;5046260;28;8888;-77
2022/05/14 10:04:53;;;;;;;;;14.60;14.00;;;;;24.45;45.06;99585.50;5064182;28;8852;-69
2022/05/14 10:07:32;;;;;;;;;16.80;16.40;;;;;24.49;46.25;99583.53;5063767;28;8881;-76
2022/05/14 10:10:13;;;;;;;;;17.60;16.40;;;;;24.88;45.07;99571.50;5061132;28;9060;-71
2022/05/14 10:12:45;;;;;;;;;17.80;17.20;;;;;25.35;44.11;99578.50;5060281;28;8882;-73
2022/05/14 10:15:29;;;;;;;;;13.20;13.20;;;;;24.64;44.37;99576.47;5046347;28;8846;-71
2022/05/14 10:18:07;;;;;;;;;13.40;13.40;;;;;24.51;45.19;99581.63;5049677;28;10012;-71
2022/05/14 10:20:56;;;;;;;;;13.60;13.60;;;;;24.23;45.15;99585.00;5055597;28;8866;-73
2022/05/14 10:26:58;;;;;;;;;13.80;13.80;;;;;24.75;41.45;99578.53;5047552;28;8862;-73
2022/05/14 10:29:44;;;;;;;;;9.20;9.20;;;;;24.54;41.63;99573.50;5032304;28;8855;-73
2022/05/14 10:32:15;;;;;;;;;20.75;20.75;;;;;24.69;41.23;99585.94;5063402;28;8925;-77
2022/05/14 10:34:52;;;;;;;;;14.60;14.60;;;;;24.63;41.70;99580.97;4999623;28;8864;-75
2022/05/14 10:37:29;;;;;;;;;8.40;8.40;;;;;24.17;41.64;99586.19;5048948;28;8836;-73
2022/05/14 10:40:06;;;;;;;;;12.20;12.20;;;;;24.31;40.42;99575.63;5032208;28;8884;-77
2022/05/14 10:42:46;;;;;;;;;11.60;10.60;;;;;24.23;40.07;99566.34;5058065;28;9607;-74
2022/05/14 10:45:19;;;;;;;;;9.80;9.80;;;;;24.35;39.42;99568.31;5048394;28;8952;-74
2022/05/14 10:48:00;;;;;;;;;11.60;9.80;;;;;24.31;39.12;99564.97;5048435;28;8878;-76
2022/05/14 10:50:29;;;;;;;;;12.00;12.00;;;;;24.75;38.19;99558.03;5048296;28;8886;-74
2022/05/14 10:52:59;;;;;;;;;12.00;9.60;;;;;24.94;38.05;99562.28;5013384;28;8850;-72
2022/05/14 10:55:31;;;;;;;;;10.60;10.60;;;;;25.21;38.50;99555.25;5048453;28;8862;-70
2022/05/14 10:58:03;;;;;;;;;11.20;11.20;;;;;25.08;38.47;99552.50;5053827;28;8937;-79
2022/05/14 11:00:39;;;;;;;;;10.20;9.40;;;;;25.60;38.35;99545.78;4991453;28;8993;-74
2022/05/14 11:03:14;;;;;;;;;13.60;11.60;;;;;26.03;37.33;99539.53;5043020;28;8886;-71
2022/05/14 11:06:09;;;;;;;;;13.00;13.00;;;;;26.01;36.78;99542.31;5008416;28;9650;-72
2022/05/14 11:08:41;;;;;;;;;12.20;12.00;;;;;26.31;36.45;99538.59;5025412;28;8935;-73
2022/05/14 11:11:19;;;;;;;;;14.00;12.60;;;;;26.62;35.62;99542.78;5034075;28;8860;-74
2022/05/14 11:13:57;;;;;;;;;10.80;9.40;;;;;26.87;34.27;99541.13;5030431;28;8845;-73
2022/05/14 11:16:40;;;;;;;;;10.40;10.40;;;;;26.20;34.57;99544.66;5017635;28;8875;-72
2022/05/14 11:19:09;;;;;;;;;8.80;8.60;;;;;25.47;35.90;99540.34;5045117;28;8836;-71
2022/05/14 11:21:41;;;;;;;;;11.20;11.20;;;;;25.55;36.39;99549.69;4994058;28;8857;-72
2022/05/14 11:24:13;;;;;;;;;14.00;12.20;;;;;25.34;36.99;99541.22;5024687;28;8834;-73
2022/05/14 11:26:48;;;;;;;;;13.80;12.00;;;;;25.38;36.25;99545.41;5026018;28;8980;-72
2022/05/14 11:29:20;;;;;;;;;12.00;12.00;;;;;25.37;36.80;99538.31;5021124;28;8894;-72
2022/05/14 11:31:55;;;;;;;;;10.40;10.00;;;;;25.06;37.51;99543.69;4986381;28;8878;-75
2022/05/14 11:34:27;;;;;;;;;11.80;11.80;;;;;24.93;37.70;99537.41;4986239;28;8851;-74
2022/05/14 11:36:59;;;;;;;;;14.80;11.40;;;;;25.04;37.25;99547.44;4997990;28;9009;-75
2022/05/14 11:39:34;;;;;;;;;12.80;12.00;;;;;25.20;36.53;99537.53;5006530;28;8893;-74
2022/05/14 11:42:26;;;;;;;;;11.20;10.80;;;;;25.77;35.26;99525.16;4989766;28;8979;-75
2022/05/14 11:45:04;;;;;;;;;8.80;8.80;;;;;26.12;34.02;99514.88;5007740;28;8921;-71
2022/05/14 11:47:52;;;;;;;;;10.00;10.00;;;;;26.47;34.07;99505.50;4999273;28;8869;-70
2022/05/14 11:50:31;;;;;;;;;10.00;10.00;;;;;26.35;33.50;99528.53;5027830;28;8977;-71
2022/05/14 11:53:13;;;;;;;;;12.20;11.20;;;;;25.52;34.47;99526.72;5024731;28;8849;-71
2022/05/14 11:55:48;;;;;;;;;9.80;9.80;;;;;25.34;35.12;99528.72;5008372;28;8848;-71
2022/05/14 11:58:25;;;;;;;;;9.80;9.80;;;;;25.41;35.12;99518.53;5008297;28;8848;-70
2022/05/14 12:00:56;;;;;;;;;10.00;10.00;;;;;25.28;35.68;99518.41;4960360;28;8933;-68
2022/05/14 12:03:31;;;;;;;;;9.00;8.40;;;;;25.34;35.26;99514.50;5006910;28;8836;-71
2022/05/14 12:06:07;;;;;;;;;11.60;10.80;;;;;25.55;34.50;99502.47;5023648;28;8840;-70
2022/05/14 12:08:51;;;;;;;;;10.00;10.00;;;;;25.84;33.72;99515.78;5027955;28;8871;-73
2022/05/14 12:11:30;;;;;;;;;12.20;10.00;;;;;25.86;34.17;99487.19;5027977;28;8841;-73
2022/05/14 12:14:05;;;;;;;;;11.20;11.20;;;;;25.78;34.14;99501.00;5027629;28;8861;-74
2022/05/14 12:16:37;;;;;;;;;11.00;10.00;;;;;26.06;34.44;99509.94;5027038;28;8927;-73